createdAt,value
2023-04-09T00:01:22.310Z,6.13
2023-04-09T00:03:51.278Z,5.95
2023-04-09T00:06:21.139Z,6.28
2023-04-09T00:08:50.601Z,6.08
2023-04-09T00:11:19.839Z,6.32
2023-04-09T00:13:49.392Z,6.36
2023-04-09T00:16:18.538Z,6.41
2023-04-09T00:18:49.658Z,6.43
2023-04-09T00:21:18.732Z,6.48
2023-04-09T00:23:47.224Z,6.40
2023-04-09T00:26:17.192Z,6.44
2023-04-09T00:28:47.285Z,6.52
2023-04-09T00:31:27.126Z,6.44
2023-04-09T00:34:04.582Z,6.49
2023-04-09T00:36:33.067Z,6.59
2023-04-09T00:39:03.336Z,6.51
2023-04-09T00:41:33.315Z,6.53
2023-04-09T00:44:02.696Z,6.27
2023-04-09T00:46:33.419Z,6.45
2023-04-09T00:49:03.458Z,6.45
2023-04-09T00:51:34.140Z,6.50
2023-04-09T00:54:04.881Z,6.57
2023-04-09T00:56:34.402Z,6.67
2023-04-09T00:59:09.770Z,6.71
2023-04-09T01:01:43.614Z,6.59
2023-04-09T01:04:13.954Z,6.67
2023-04-09T01:07:03.282Z,6.85
2023-04-09T01:10:01.021Z,6.76
2023-04-09T01:12:34.630Z,6.60
2023-04-09T01:15:10.767Z,7.02
2023-04-09T01:17:54.257Z,6.88
2023-04-09T01:20:41.218Z,7.39
2023-04-09T01:23:33.100Z,8.07
2023-04-09T01:26:24.067Z,7.18
2023-04-09T01:29:01.856Z,7.15
2023-04-09T01:31:43.842Z,8.00
2023-04-09T01:34:14.494Z,7.47
2023-04-09T01:36:46.342Z,7.70
2023-04-09T01:39:15.222Z,7.75
2023-04-09T01:41:44.940Z,7.76
2023-04-09T01:44:14.501Z,7.97
2023-04-09T01:46:44.751Z,8.04
2023-04-09T01:49:14.219Z,8.29
2023-04-09T01:51:44.833Z,8.41
2023-04-09T01:54:14.258Z,8.40
2023-04-09T01:56:48.996Z,8.35
2023-04-09T01:59:18.380Z,7.60
2023-04-09T02:01:50.795Z,7.88
2023-04-09T02:04:37.163Z,8.04
2023-04-09T02:07:24.340Z,7.81
2023-04-09T02:09:55.217Z,7.45
2023-04-09T02:12:26.409Z,7.52
2023-04-09T02:14:55.894Z,8.07
2023-04-09T02:17:25.065Z,7.44
2023-04-09T02:19:54.109Z,7.58
2023-04-09T02:22:23.534Z,7.67
2023-04-09T02:24:53.397Z,8.31
2023-04-09T02:27:22.816Z,8.35
2023-04-09T02:29:51.612Z,8.18
2023-04-09T02:32:21.917Z,8.51
2023-04-09T02:34:51.454Z,8.61
2023-04-09T02:37:20.913Z,8.32
2023-04-09T02:39:49.953Z,8.11
2023-04-09T02:42:19.336Z,8.71
2023-04-09T02:44:49.281Z,8.79
2023-04-09T02:47:19.080Z,8.80
2023-04-09T02:49:48.755Z,8.70
2023-04-09T02:52:17.273Z,8.81
2023-04-09T02:54:46.480Z,8.46
2023-04-09T02:57:14.935Z,8.67
2023-04-09T02:59:43.970Z,8.76
2023-04-09T03:02:14.927Z,8.39
2023-04-09T03:04:46.956Z,8.92
2023-04-09T03:07:19.571Z,8.86
2023-04-09T03:09:52.075Z,9.17
2023-04-09T03:12:24.122Z,8.49
2023-04-09T03:14:55.295Z,8.46
2023-04-09T03:17:27.742Z,8.61
2023-04-09T03:20:07.689Z,8.57
2023-04-09T03:22:43.999Z,8.91
2023-04-09T03:25:27.612Z,8.25
2023-04-09T03:28:09.636Z,8.37
2023-04-09T03:30:44.689Z,8.41
2023-04-09T03:33:19.413Z,8.31
2023-04-09T03:36:06.013Z,8.63
2023-04-09T03:38:47.758Z,8.74
2023-04-09T03:41:34.010Z,8.18
2023-04-09T03:44:11.035Z,8.46
2023-04-09T03:46:57.362Z,8.42
2023-04-09T03:49:35.006Z,8.42
2023-04-09T03:52:13.623Z,8.78
2023-04-09T03:54:48.616Z,8.74
2023-04-09T03:57:24.021Z,8.93
2023-04-09T04:00:07.637Z,9.09
2023-04-09T04:03:06.289Z,9.20
2023-04-09T04:06:09.951Z,8.71
2023-04-09T04:08:52.460Z,9.10
2023-04-09T04:11:34.831Z,8.87
2023-04-09T04:14:05.517Z,9.30
2023-04-09T04:16:42.428Z,9.42
2023-04-09T04:19:17.029Z,9.24
2023-04-09T04:21:53.986Z,9.22
2023-04-09T04:24:26.300Z,8.96
2023-04-09T04:26:55.438Z,9.39
2023-04-09T04:29:35.373Z,9.55
2023-04-09T04:32:07.496Z,9.15
2023-04-09T04:34:42.091Z,9.25
2023-04-09T04:37:23.488Z,9.51
2023-04-09T04:40:07.014Z,9.89
2023-04-09T04:42:42.030Z,9.55
2023-04-09T04:45:15.450Z,9.67
2023-04-09T04:47:54.513Z,9.55
2023-04-09T04:50:24.492Z,9.70
2023-04-09T04:53:06.708Z,9.71
2023-04-09T04:55:44.683Z,9.77
2023-04-09T04:58:19.030Z,9.62
2023-04-09T05:00:57.650Z,9.33
2023-04-09T05:03:33.469Z,9.61
2023-04-09T05:06:21.917Z,9.61
2023-04-09T05:08:53.831Z,9.57
2023-04-09T05:11:23.591Z,9.58
2023-04-09T05:13:53.514Z,9.83
2023-04-09T05:16:25.577Z,9.79
2023-04-09T05:19:05.726Z,10.52
2023-04-09T05:21:35.331Z,10.11
2023-04-09T05:24:07.703Z,9.97
2023-04-09T05:26:39.041Z,10.07
2023-04-09T05:29:09.726Z,10.05
2023-04-09T05:31:42.612Z,9.90
2023-04-09T05:34:23.505Z,9.73
2023-04-09T05:36:55.404Z,9.96
2023-04-09T05:39:26.040Z,9.98
2023-04-09T05:41:55.154Z,9.68
2023-04-09T05:44:31.102Z,9.57
2023-04-09T05:47:13.960Z,9.95
2023-04-09T05:50:07.587Z,10.18
2023-04-09T05:52:38.920Z,10.27
2023-04-09T05:55:10.804Z,9.85
2023-04-09T05:57:46.716Z,9.96
2023-04-09T06:00:17.407Z,10.19
2023-04-09T06:02:47.139Z,9.87
2023-04-09T06:05:18.938Z,9.93
2023-04-09T06:07:50.620Z,10.37
2023-04-09T06:10:20.024Z,10.28
2023-04-09T06:12:53.568Z,10.41
2023-04-09T06:15:23.569Z,9.89
2023-04-09T06:17:54.119Z,10.13
2023-04-09T06:20:23.559Z,10.44
2023-04-09T06:22:55.113Z,10.70
2023-04-09T06:25:25.959Z,10.10
2023-04-09T06:27:55.636Z,10.41
2023-04-09T06:30:26.481Z,9.99
2023-04-09T06:32:55.835Z,10.38
2023-04-09T06:35:34.252Z,10.32
2023-04-09T06:38:03.658Z,10.63
2023-04-09T06:40:36.103Z,10.17
2023-04-09T06:43:09.166Z,9.88
2023-04-09T06:45:51.491Z,10.11
2023-04-09T06:48:24.096Z,10.35
2023-04-09T06:50:55.206Z,9.98
2023-04-09T06:53:25.996Z,10.43
2023-04-09T06:55:58.084Z,10.50
2023-04-09T06:58:35.077Z,10.81
2023-04-09T07:01:07.495Z,10.24
2023-04-09T07:03:38.947Z,10.67
2023-04-09T07:06:11.755Z,10.73
2023-04-09T07:08:43.140Z,10.21
2023-04-09T07:11:13.884Z,10.13
2023-04-09T07:13:44.915Z,10.54
2023-04-09T07:16:14.196Z,10.45
2023-04-09T07:18:46.306Z,10.62
2023-04-09T07:21:18.472Z,10.56
2023-04-09T07:23:49.992Z,10.49
2023-04-09T07:26:19.532Z,10.91
2023-04-09T07:28:50.677Z,10.50
2023-04-09T07:31:19.713Z,11.04
2023-04-09T07:33:50.005Z,10.52
2023-04-09T07:36:19.905Z,10.79
2023-04-09T07:38:51.774Z,10.28
2023-04-09T07:41:23.809Z,10.55
2023-04-09T07:43:53.988Z,9.95
2023-04-09T07:46:23.547Z,9.89
2023-04-09T07:48:55.245Z,10.15
2023-04-09T07:51:31.370Z,10.31
2023-04-09T07:54:03.446Z,9.83
2023-04-09T07:56:34.813Z,9.91
2023-04-09T07:59:04.085Z,10.10
2023-04-09T08:01:35.282Z,9.88
2023-04-09T08:04:07.536Z,10.23
2023-04-09T08:06:39.394Z,10.37
2023-04-09T08:09:11.686Z,9.74
2023-04-09T08:11:46.842Z,10.11
2023-04-09T08:14:20.204Z,9.97
2023-04-09T08:16:52.167Z,10.17
2023-04-09T08:19:27.625Z,9.85
2023-04-09T08:22:02.726Z,9.66
2023-04-09T08:24:42.653Z,9.70
2023-04-09T08:27:17.574Z,10.15
2023-04-09T08:30:01.358Z,10.43
2023-04-09T08:32:37.580Z,10.21
2023-04-09T08:35:22.273Z,10.33
2023-04-09T08:37:52.354Z,10.29
2023-04-09T08:40:39.330Z,10.11
2023-04-09T08:43:29.951Z,10.58
2023-04-09T08:46:21.514Z,10.61
2023-04-09T08:49:03.236Z,10.60
2023-04-09T08:51:49.322Z,11.07
2023-04-09T08:54:31.898Z,11.17
2023-04-09T08:57:13.625Z,10.39
2023-04-09T08:59:45.553Z,10.59
2023-04-09T09:02:16.590Z,10.73
2023-04-09T09:04:49.702Z,10.93
2023-04-09T09:07:19.893Z,10.93
2023-04-09T09:10:01.760Z,11.11
2023-04-09T09:12:44.161Z,11.54
2023-04-09T09:15:35.760Z,11.55
2023-04-09T09:18:07.905Z,11.12
2023-04-09T09:20:39.246Z,11.29
2023-04-09T09:23:11.329Z,11.11
2023-04-09T09:25:44.221Z,11.18
2023-04-09T09:28:15.046Z,11.00
2023-04-09T09:30:49.206Z,11.10
2023-04-09T09:33:19.241Z,11.30
2023-04-09T09:36:02.229Z,11.12
2023-04-09T09:38:33.465Z,11.11
2023-04-09T09:41:20.195Z,11.15
2023-04-09T09:43:51.380Z,10.77
2023-04-09T09:46:23.492Z,11.06
2023-04-09T09:48:54.374Z,11.07
2023-04-09T09:51:33.185Z,11.20
2023-04-09T09:54:05.447Z,10.96
2023-04-09T09:56:43.377Z,11.13
2023-04-09T09:59:27.694Z,11.58
2023-04-09T10:02:08.124Z,11.60
2023-04-09T10:04:41.172Z,10.95
2023-04-09T10:07:17.863Z,11.30
2023-04-09T10:09:58.157Z,11.33
2023-04-09T10:12:32.498Z,11.23
2023-04-09T10:15:07.334Z,11.37
2023-04-09T10:17:39.096Z,11.06
2023-04-09T10:20:27.749Z,11.49
2023-04-09T10:23:09.740Z,11.47
2023-04-09T10:25:42.211Z,11.37
2023-04-09T10:28:19.729Z,11.32
2023-04-09T10:30:52.249Z,11.38
2023-04-09T10:33:31.689Z,11.20
2023-04-09T10:36:07.403Z,11.53
2023-04-09T10:38:44.865Z,11.41
2023-04-09T10:41:33.535Z,10.89
2023-04-09T10:44:07.643Z,10.91
2023-04-09T10:46:38.681Z,11.42
2023-04-09T10:49:19.613Z,11.13
2023-04-09T10:52:05.616Z,11.55
2023-04-09T10:54:35.232Z,11.22
2023-04-09T10:57:09.603Z,11.24
2023-04-09T11:00:04.677Z,11.22
2023-04-09T11:03:06.114Z,11.62
2023-04-09T11:05:42.812Z,11.25
2023-04-09T11:08:14.809Z,11.52
2023-04-09T11:10:52.197Z,11.48
2023-04-09T11:13:23.537Z,11.29
2023-04-09T11:16:00.277Z,11.39
2023-04-09T11:18:35.062Z,11.49
2023-04-09T11:21:07.200Z,10.87
2023-04-09T11:23:38.214Z,10.84
2023-04-09T11:26:11.652Z,10.98
2023-04-09T11:28:45.685Z,10.88
2023-04-09T11:31:17.474Z,11.14
2023-04-09T11:33:48.277Z,11.09
2023-04-09T11:36:19.768Z,11.02
2023-04-09T11:38:52.141Z,10.84
2023-04-09T11:41:43.945Z,10.98
2023-04-09T11:44:15.372Z,11.01
2023-04-09T11:46:50.983Z,11.16
2023-04-09T11:49:22.091Z,11.22
2023-04-09T11:51:51.909Z,10.92
2023-04-09T11:54:22.074Z,10.87
2023-04-09T11:56:59.145Z,11.19
2023-04-09T11:59:35.321Z,10.79
2023-04-09T12:02:09.762Z,11.13
2023-04-09T12:04:39.969Z,11.25
2023-04-09T12:07:12.334Z,11.10
2023-04-09T12:09:51.700Z,11.27
2023-04-09T12:12:26.017Z,10.53
2023-04-09T12:15:02.319Z,10.20
2023-04-09T12:17:36.105Z,9.92
2023-04-09T12:20:10.938Z,9.95
2023-04-09T12:22:43.947Z,10.00
2023-04-09T12:25:15.512Z,9.87
2023-04-09T12:27:46.382Z,9.80
2023-04-09T12:30:21.764Z,10.00
2023-04-09T12:32:51.481Z,9.61
2023-04-09T12:35:25.136Z,10.57
2023-04-09T12:37:56.269Z,10.35
2023-04-09T12:40:33.582Z,10.52
2023-04-09T12:43:03.501Z,10.60
2023-04-09T12:45:38.479Z,10.65
2023-04-09T12:48:09.516Z,10.70
2023-04-09T12:50:39.495Z,10.76
2023-04-09T12:53:13.933Z,10.63
2023-04-09T12:55:49.848Z,10.96
2023-04-09T12:58:20.068Z,10.59
2023-04-09T13:00:51.771Z,10.93
2023-04-09T13:03:23.061Z,10.23
2023-04-09T13:05:54.455Z,10.82
2023-04-09T13:08:25.883Z,10.37
2023-04-09T13:11:02.035Z,10.33
2023-04-09T13:13:38.578Z,10.71
2023-04-09T13:17:19.868Z,10.15
2023-04-09T13:19:52.766Z,9.92
2023-04-09T13:22:24.156Z,10.11
2023-04-09T13:25:27.557Z,9.93
2023-04-09T13:28:11.602Z,10.17
2023-04-09T13:30:44.424Z,9.65
2023-04-09T13:33:14.075Z,9.96
2023-04-09T13:35:45.900Z,9.82
2023-04-09T13:38:15.518Z,9.87
2023-04-09T13:40:47.688Z,9.62
2023-04-09T13:43:23.112Z,9.29
2023-04-09T13:45:52.086Z,9.34
2023-04-09T13:48:23.100Z,9.17
2023-04-09T13:50:52.585Z,9.21
2023-04-09T13:53:25.284Z,9.29
2023-04-09T13:55:55.452Z,9.29
2023-04-09T13:58:26.451Z,9.18
2023-04-09T14:01:03.284Z,9.03
2023-04-09T14:03:42.372Z,8.90
2023-04-09T14:06:11.718Z,8.84
2023-04-09T14:08:50.489Z,8.63
2023-04-09T14:11:20.136Z,8.33
2023-04-09T14:13:51.174Z,7.96
2023-04-09T14:16:21.663Z,8.41
2023-04-09T14:18:52.645Z,8.54
2023-04-09T14:21:22.670Z,8.65
2023-04-09T14:23:52.291Z,8.39
2023-04-09T14:26:24.121Z,8.42
2023-04-09T14:28:55.730Z,8.39
2023-04-09T14:31:32.158Z,8.35
2023-04-09T14:34:02.934Z,7.99
2023-04-09T14:36:33.637Z,7.96
2023-04-09T14:39:03.000Z,7.53
2023-04-09T14:41:36.104Z,7.16
2023-04-09T14:44:08.024Z,7.06
2023-04-09T14:46:39.632Z,7.12
2023-04-09T14:49:11.684Z,7.38
2023-04-09T14:51:43.396Z,6.80
2023-04-09T14:54:13.787Z,6.86
2023-04-09T14:56:44.417Z,7.12
2023-04-09T14:59:16.099Z,7.36
2023-04-09T15:01:47.540Z,7.60
2023-04-09T15:04:18.608Z,7.84
2023-04-09T15:06:49.004Z,7.67
2023-04-09T15:09:19.811Z,7.58
2023-04-09T15:11:50.028Z,7.08
2023-04-09T15:14:21.643Z,7.42
2023-04-09T15:16:52.174Z,7.59
2023-04-09T15:19:23.861Z,7.76
2023-04-09T15:21:54.848Z,7.35
2023-04-09T15:24:23.768Z,7.22
2023-04-09T15:26:55.112Z,7.23
2023-04-09T15:29:25.878Z,7.04
2023-04-09T15:31:55.401Z,7.30
2023-04-09T15:34:27.981Z,7.53
2023-04-09T15:37:02.253Z,7.34
2023-04-09T15:39:33.542Z,6.94
2023-04-09T15:42:03.466Z,6.94
2023-04-09T15:44:34.571Z,6.95
2023-04-09T15:47:05.328Z,7.31
2023-04-09T15:49:38.631Z,6.18
2023-04-09T15:52:08.449Z,6.55
2023-04-09T15:54:39.872Z,6.61
2023-04-09T15:57:11.114Z,6.65
2023-04-09T15:59:45.356Z,7.03
2023-04-09T16:02:18.498Z,6.68
2023-04-09T16:04:48.276Z,6.55
2023-04-09T16:07:20.550Z,6.98
2023-04-09T16:09:51.525Z,6.75
2023-04-09T16:12:21.661Z,7.02
2023-04-09T16:14:51.261Z,6.67
2023-04-09T16:17:23.050Z,6.86
2023-04-09T16:19:52.523Z,6.53
2023-04-09T16:22:23.177Z,6.80
2023-04-09T16:24:53.871Z,6.89
2023-04-09T16:27:24.294Z,6.59
2023-04-09T16:29:55.367Z,6.56
2023-04-09T16:32:28.055Z,6.64
2023-04-09T16:35:05.726Z,6.20
2023-04-09T16:37:35.868Z,6.44
2023-04-09T16:40:10.168Z,6.38
2023-04-09T16:42:40.442Z,6.60
2023-04-09T16:45:12.131Z,6.31
2023-04-09T16:47:43.996Z,6.35
2023-04-09T16:50:14.488Z,6.51
2023-04-09T16:52:46.023Z,6.50
2023-04-09T16:55:15.792Z,6.34
2023-04-09T16:57:47.395Z,6.54
2023-04-09T17:00:27.417Z,6.45
2023-04-09T17:03:06.392Z,6.35
2023-04-09T17:05:38.099Z,6.15
2023-04-09T17:08:09.129Z,5.89
2023-04-09T17:10:39.555Z,6.20
2023-04-09T17:13:14.732Z,6.14
2023-04-09T17:15:46.758Z,5.87
2023-04-09T17:18:16.860Z,6.17
2023-04-09T17:20:48.576Z,6.19
2023-04-09T17:23:19.716Z,5.67
2023-04-09T17:25:50.464Z,5.45
2023-04-09T17:28:20.780Z,5.37
2023-04-09T17:30:50.985Z,5.38
2023-04-09T17:33:22.596Z,5.59
2023-04-09T17:35:54.098Z,5.29
2023-04-09T17:38:27.184Z,4.99
2023-04-09T17:40:59.151Z,5.83
2023-04-09T17:43:33.800Z,5.97
2023-04-09T17:46:05.974Z,5.82
2023-04-09T17:48:38.112Z,5.96
2023-04-09T17:51:07.786Z,5.98
2023-04-09T17:53:38.909Z,5.82
2023-04-09T17:56:09.919Z,5.83
2023-04-09T17:58:38.450Z,5.83
2023-04-09T18:01:14.032Z,5.67
2023-04-09T18:03:49.814Z,5.70
2023-04-09T18:06:19.447Z,5.96
2023-04-09T18:08:50.320Z,5.68
2023-04-09T18:11:19.890Z,6.18
2023-04-09T18:13:51.967Z,5.99
2023-04-09T18:16:23.772Z,5.73
2023-04-09T18:18:54.072Z,5.66
2023-04-09T18:21:23.869Z,5.94
2023-04-09T18:23:53.995Z,5.73
2023-04-09T18:26:23.660Z,5.63
2023-04-09T18:28:55.632Z,5.83
2023-04-09T18:31:32.550Z,5.60
2023-04-09T18:34:04.140Z,5.78
2023-04-09T18:36:36.070Z,5.39
2023-04-09T18:39:07.807Z,5.69
2023-04-09T18:41:38.254Z,5.86
2023-04-09T18:44:09.827Z,5.71
2023-04-09T18:46:40.108Z,5.74
2023-04-09T18:49:11.861Z,5.47
2023-04-09T18:51:43.992Z,5.76
2023-04-09T18:54:16.141Z,5.17
2023-04-09T18:56:47.770Z,5.58
2023-04-09T18:59:18.241Z,5.18
2023-04-09T19:01:47.863Z,5.34
2023-04-09T19:04:18.753Z,5.22
2023-04-09T19:06:51.679Z,5.71
2023-04-09T19:09:21.823Z,5.77
2023-04-09T19:11:51.733Z,5.21
2023-04-09T19:14:22.199Z,5.35
2023-04-09T19:16:52.023Z,5.42
2023-04-09T19:19:24.485Z,5.28
2023-04-09T19:21:55.547Z,5.74
2023-04-09T19:24:27.776Z,5.61
2023-04-09T19:27:11.854Z,5.36
2023-04-09T19:30:04.729Z,5.44
2023-04-09T19:36:11.229Z,4.99
2023-04-09T19:39:21.690Z,5.46
2023-04-09T19:41:51.904Z,5.29
2023-04-09T19:44:23.175Z,5.47
2023-04-09T19:46:52.238Z,5.38
2023-04-09T19:49:29.362Z,5.56
2023-04-09T19:52:34.022Z,5.43
2023-04-09T19:55:07.530Z,5.17
2023-04-09T19:57:46.159Z,5.55
2023-04-09T20:00:18.869Z,5.33
2023-04-09T20:02:53.725Z,5.47
2023-04-09T20:05:23.791Z,5.47
2023-04-09T20:08:05.872Z,5.16
2023-04-09T20:10:40.477Z,5.19
2023-04-09T20:13:18.954Z,5.40
2023-04-09T20:15:51.523Z,5.12
2023-04-09T20:18:23.091Z,5.33
2023-04-09T20:20:54.850Z,5.44
2023-04-09T20:23:25.554Z,5.54
2023-04-09T20:26:00.390Z,5.49
2023-04-09T20:28:36.433Z,5.27
2023-04-09T20:31:11.924Z,5.52
2023-04-09T20:33:44.857Z,5.39
2023-04-09T20:36:20.244Z,5.32
2023-04-09T20:38:55.579Z,5.90
2023-04-09T20:41:35.729Z,5.55
2023-04-09T20:44:10.809Z,5.20
2023-04-09T20:46:44.551Z,4.65
2023-04-09T20:49:16.810Z,4.67
2023-04-09T20:51:49.897Z,5.30
2023-04-09T20:54:39.681Z,4.87
2023-04-09T20:57:13.911Z,5.16
2023-04-09T20:59:43.526Z,5.45
2023-04-09T21:02:16.455Z,5.26
2023-04-09T21:04:46.581Z,5.38
2023-04-09T21:07:15.516Z,5.36
2023-04-09T21:09:44.027Z,5.14
2023-04-09T21:12:13.907Z,5.08
2023-04-09T21:14:45.610Z,4.49
2023-04-09T21:17:14.888Z,4.48
2023-04-09T21:19:44.049Z,5.04
2023-04-09T21:22:14.025Z,4.91
2023-04-09T21:24:43.761Z,4.94
2023-04-09T21:27:14.910Z,4.53
2023-04-09T21:29:43.854Z,5.00
2023-04-09T21:32:13.206Z,5.10
2023-04-09T21:34:42.522Z,5.48
2023-04-09T21:37:11.654Z,5.30
2023-04-09T21:39:43.614Z,5.30
2023-04-09T21:42:13.582Z,5.49
2023-04-09T21:44:45.579Z,5.25
2023-04-09T21:47:15.513Z,5.55
2023-04-09T21:49:46.041Z,5.62
2023-04-09T21:52:15.274Z,5.46
2023-04-09T21:54:45.466Z,5.66
2023-04-09T21:57:14.904Z,5.51
2023-04-09T21:59:46.164Z,5.37
2023-04-09T22:02:16.003Z,5.16
2023-04-09T22:04:47.030Z,5.37
2023-04-09T22:07:15.908Z,5.26
2023-04-09T22:09:45.667Z,5.37
2023-04-09T22:12:14.885Z,5.32
2023-04-09T22:14:43.744Z,5.39
2023-04-09T22:17:13.869Z,4.91
2023-04-09T22:19:43.631Z,5.48
2023-04-09T22:22:16.043Z,5.22
2023-04-09T22:24:46.825Z,5.33
2023-04-09T22:27:17.121Z,4.75
2023-04-09T22:29:47.462Z,4.31
2023-04-09T22:32:18.511Z,4.71
2023-04-09T22:34:47.880Z,4.42
2023-04-09T22:37:19.570Z,4.86
2023-04-09T22:39:47.835Z,4.99
2023-04-09T22:42:17.991Z,5.07
2023-04-09T22:44:47.405Z,5.31
2023-04-09T22:47:16.508Z,4.68
2023-04-09T22:49:46.021Z,4.69
2023-04-09T22:52:15.354Z,4.38
2023-04-09T22:54:44.153Z,4.84
2023-04-09T22:57:14.160Z,5.16
2023-04-09T22:59:44.343Z,5.01
2023-04-09T23:02:13.954Z,5.15
2023-04-09T23:04:43.702Z,5.32
2023-04-09T23:07:13.556Z,5.35
2023-04-09T23:09:43.443Z,5.07
2023-04-09T23:12:11.705Z,5.15
2023-04-09T23:14:42.752Z,5.59
2023-04-09T23:17:11.681Z,5.15
2023-04-09T23:19:42.192Z,5.59
2023-04-09T23:22:11.246Z,5.42
2023-04-09T23:24:40.192Z,5.26
2023-04-09T23:27:10.031Z,5.31
2023-04-09T23:29:40.400Z,5.61
2023-04-09T23:32:10.252Z,5.48
2023-04-09T23:34:41.942Z,5.13
2023-04-09T23:37:11.346Z,5.36
2023-04-09T23:39:41.808Z,5.41
2023-04-09T23:42:11.314Z,5.51
2023-04-09T23:44:42.970Z,5.53
2023-04-09T23:47:12.434Z,5.18
2023-04-09T23:49:44.023Z,5.20
2023-04-09T23:52:13.548Z,5.26
2023-04-09T23:54:51.921Z,5.42
2023-04-09T23:57:23.516Z,5.37
2023-04-09T23:59:52.270Z,5.46
